• Join FlightAware (Why Join?)
  • Login
  • US Flag 
12:05AM EDT


 

Airport Tracker/Info


-or-


 

Live Flight TrackerFlight Track Log ✈ CCA4122 ✈ 20-Jun-2013 ✈ ZBAA / PEK - ZUJZ / JZH

Flight Track Log - Related Links

Times and Time Zones

All times are in EDT time to prevent confusion due to time zone crossing. See the CCA4122 flight status page for this flight to view local times or setup timezone preferences in your user account.

Time Position Orientation Groundspeed Altitude Reporting Facility
EDT Latitude Longitude Course Direction KTS MPH feet Rate Location/Type
07:47AM 39.7840 115.9437 239° Southwest  Level Estimated
07:48AM 39.7095 115.7843 239° Southwest  Level Estimated
07:49AM 39.6347 115.6253 239° Southwest  Level Estimated
07:50AM 39.5597 115.4667 239° Southwest  Level Estimated
07:50AM 40.3100 116.2070 238° Southwest 357 411 17,900  Level FlightAware
07:51AM 39.4845 115.3083 238° Southwest  Level Estimated
07:51AM 40.2870 116.1220 250° West 369 425 19,000  Level FlightAware
07:51AM 40.2660 116.0450 250° West 371 427 20,200 840 Climbing FlightAware
07:52AM 40.2470 115.9730 251° West 371 427 20,200  Level FlightAware
07:53AM 40.2180 115.8630 251° West 371 427 20,200  Level FlightAware
07:54AM 40.2000 115.7960 251° West 371 427 20,200  Level FlightAware
07:54AM 40.1770 115.7070 251° West 371 427 20,200  Level FlightAware
07:55AM 40.1580 115.6370 250° West 371 427 20,200  Level FlightAware
07:58AM 39.9566 115.2419 236° Southwest  Level Estimated
07:59AM 39.8767 115.0866 236° Southwest  Level Estimated
08:00AM 39.7966 114.9316 236° Southwest  Level Estimated
08:01AM 39.7163 114.7770 236° Southwest  Level Estimated
08:02AM 39.6358 114.6228 236° Southwest  Level Estimated
08:03AM 39.5551 114.4689 236° Southwest  Level Estimated
08:04AM 39.4742 114.3154 236° Southwest  Level Estimated
08:05AM 39.3931 114.1622 236° Southwest  Level Estimated
08:06AM 39.3118 114.0094 236° Southwest  Level Estimated
08:07AM 39.2303 113.8570 235° Southwest  Level Estimated
08:08AM 39.1486 113.7049 235° Southwest  Level Estimated
08:09AM 39.0667 113.5532 235° Southwest  Level Estimated
08:10AM 38.9846 113.4018 235° Southwest  Level Estimated
08:11AM 38.9024 113.2507 235° Southwest  Level Estimated
08:12AM 38.8199 113.1000 235° Southwest  Level Estimated
08:13AM 38.7372 112.9497 235° Southwest  Level Estimated
08:14AM 38.6543 112.7997 235° Southwest  Level Estimated
08:15AM 38.5713 112.6501 235° Southwest  Level Estimated
08:16AM 38.4880 112.5008 235° Southwest  Level Estimated
08:17AM 38.4046 112.3518 234° Southwest  Level Estimated
08:18AM 38.3209 112.2032 234° Southwest  Level Estimated
08:19AM 38.2371 112.0549 234° Southwest  Level Estimated
08:20AM 38.1531 111.9070 234° Southwest  Level Estimated
08:21AM 38.0690 111.7594 234° Southwest  Level Estimated
08:22AM 37.9846 111.6122 234° Southwest  Level Estimated
08:23AM 37.9000 111.4653 234° Southwest  Level Estimated
08:24AM 37.8153 111.3187 234° Southwest  Level Estimated
08:25AM 37.7304 111.1725 234° Southwest  Level Estimated
08:26AM 37.6453 111.0266 234° Southwest  Level Estimated
08:27AM 37.5600 110.8810 234° Southwest  Level Estimated
08:28AM 37.4746 110.7358 233° Southwest  Level Estimated
08:29AM 37.3889 110.5909 233° Southwest  Level Estimated
08:30AM 37.3031 110.4463 233° Southwest  Level Estimated
08:31AM 37.2172 110.3021 233° Southwest  Level Estimated
08:32AM 37.1310 110.1582 233° Southwest  Level Estimated
08:33AM 37.0447 110.0146 233° Southwest  Level Estimated
08:34AM 36.9582 109.8714 233° Southwest  Level Estimated
08:35AM 36.8715 109.7284 233° Southwest  Level Estimated
08:36AM 36.7846 109.5858 233° Southwest  Level Estimated
08:37AM 36.6976 109.4435 233° Southwest  Level Estimated
08:38AM 36.6105 109.3016 233° Southwest  Level Estimated
08:39AM 36.5231 109.1599 233° Southwest  Level Estimated
08:40AM 36.4356 109.0186 232° Southwest  Level Estimated
08:41AM 36.3479 108.8776 232° Southwest  Level Estimated
08:42AM 36.2600 108.7369 232° Southwest  Level Estimated
08:43AM 36.1720 108.5966 232° Southwest  Level Estimated
08:44AM 36.0839 108.4565 232° Southwest  Level Estimated
08:45AM 35.9955 108.3168 232° Southwest  Level Estimated
08:46AM 35.9070 108.1774 232° Southwest  Level Estimated
08:47AM 35.8184 108.0383 232° Southwest  Level Estimated
08:48AM 35.7295 107.8995 232° Southwest  Level Estimated
08:49AM 35.6405 107.7610 232° Southwest  Level Estimated
08:50AM 35.5514 107.6228 232° Southwest  Level Estimated
08:51AM 35.4621 107.4849 232° Southwest  Level Estimated
08:52AM 35.3727 107.3473 231° Southwest  Level Estimated
08:53AM 35.2831 107.2101 231° Southwest  Level Estimated
08:54AM 35.1933 107.0731 231° Southwest  Level Estimated
08:55AM 35.1034 106.9364 231° Southwest  Level Estimated
08:56AM 35.0133 106.8001 231° Southwest  Level Estimated
08:57AM 34.9231 106.6640 231° Southwest  Level Estimated
08:58AM 34.8327 106.5283 231° Southwest  Level Estimated
08:59AM 34.7422 106.3928 231° Southwest  Level Estimated
09:00AM 34.6515 106.2577 231° Southwest  Level Estimated
09:01AM 34.5607 106.1228 231° Southwest  Level Estimated
09:02AM 34.4697 105.9882 231° Southwest  Level Estimated
09:03AM 34.3786 105.8539 231° Southwest  Level Estimated
09:04AM 34.2873 105.7199 231° Southwest  Level Estimated
09:05AM 34.1959 105.5862 230° Southwest  Level Estimated
09:06AM 34.1043 105.4528 230° Southwest  Level Estimated
09:07AM 34.0126 105.3197 230° Southwest  Level Estimated
09:08AM 33.9208 105.1869 230° Southwest  Level Estimated
09:09AM 33.8288 105.0543 230° Southwest  Level Estimated
09:10AM 33.7367 104.9221 230° Southwest  Level Estimated
09:11AM 33.6444 104.7901 230° Southwest  Level Estimated
09:12AM 33.5520 104.6584 230° Southwest  Level Estimated
09:13AM 33.4594 104.5270 230° Southwest  Level Estimated
09:14AM 33.3668 104.3959 230° Southwest  Level Estimated
09:15AM 33.2739 104.2650 230° Southwest  Level Estimated
09:16AM 33.1810 104.1345 230° Southwest  Level Estimated
09:17AM 33.0879 104.0042 230° Southwest  Level Estimated
09:18AM 32.9947 103.8741 229° Southwest  Level Estimated
09:19AM 32.9013 103.7444 229° Southwest  Level Estimated
09:20AM 32.8570 103.6830 229° Southwest  Level Estimated
09:21AM 32.8570 103.6830 North  Level Estimated
09:22AM 32.8570 103.6830 North  Level Estimated
09:23AM 32.8570 103.6830 North  Level Estimated
09:24AM 32.8570 103.6830 North  Level Estimated
09:25AM 32.8570 103.6830 North  Level Estimated
09:26AM 32.8570 103.6830 North  Level Estimated
09:27AM 32.8570 103.6830 North  Level Estimated